Portada
METAR-TAF:

METAR-TAF

Aeroports :

Centralia Municipal Airport

Centralia, Illinois, Estats Units d'Amèrica

latitud: 38-30-53N, longitud: 089-05-32W, altitud: 163 m

Observació

L'informe es va fer fa 28 minuts, a les 19:15 UTC
Vent 8 kt del Est
Temperatura 15°C
Humitat 94%
Pressió 1021 hPa
Visibilitat: 11.3 km
Cel cobert a una alçada de 1000 ft
pluja

METAR: KENL 211915Z AUTO 08008KT 7SM -RA OVC010 15/14 A3014 RMK AO2 T01520137

Hora: 14:43 (19:43 UTC)


TAF: manca

Observacions i pronòstics meteorològics de més de 4000 aeroports (METAR i TAF).

Les estacions disponibles són els punts grocs i vermells al mapa.

Posi el ratolí al punt desitjat per veure el nom de l'estació.

Feu clic per veure les observacions i els pronòstics meteorològics.

Per canviar el mapa: feu clic els botons verds amb una creu de color negre per apropar; al botó verd amb un guió per allunyar la imatge; o en les fletxes verdes per a mapes adjacents.


METAR-TAF: